sensor_id;sensor_type;location;lat;lon;timestamp;P1;durP1;ratioP1;P2;durP2;ratioP2
36137;SDS011;22194;50.046;21.954;2022-09-03T00:02:13;10.60;;;4.00;;
36137;SDS011;22194;50.046;21.954;2022-09-03T00:04:55;13.80;;;5.10;;
36137;SDS011;22194;50.046;21.954;2022-09-03T00:10:38;10.40;;;3.90;;
36137;SDS011;22194;50.046;21.954;2022-09-03T00:16:33;12.00;;;4.20;;
36137;SDS011;22194;50.046;21.954;2022-09-03T00:19:21;12.20;;;4.30;;
36137;SDS011;22194;50.046;21.954;2022-09-03T00:21:59;8.60;;;3.40;;
36137;SDS011;22194;50.046;21.954;2022-09-03T00:24:38;10.80;;;4.00;;
36137;SDS011;22194;50.046;21.954;2022-09-03T00:27:10;10.40;;;3.70;;
36137;SDS011;22194;50.046;21.954;2022-09-03T00:29:50;9.30;;;3.70;;
36137;SDS011;22194;50.046;21.954;2022-09-03T00:32:43;8.10;;;3.50;;
36137;SDS011;22194;50.046;21.954;2022-09-03T00:35:22;9.30;;;3.70;;
36137;SDS011;22194;50.046;21.954;2022-09-03T00:38:21;8.80;;;3.50;;
36137;SDS011;22194;50.046;21.954;2022-09-03T00:52:12;8.70;;;3.60;;
36137;SDS011;22194;50.046;21.954;2022-09-03T00:57:43;9.40;;;3.50;;
36137;SDS011;22194;50.046;21.954;2022-09-03T01:00:16;10.10;;;4.40;;
36137;SDS011;22194;50.046;21.954;2022-09-03T01:14:33;9.20;;;3.80;;
36137;SDS011;22194;50.046;21.954;2022-09-03T01:17:00;12.10;;;3.50;;
36137;SDS011;22194;50.046;21.954;2022-09-03T01:22:24;10.10;;;4.00;;
36137;SDS011;22194;50.046;21.954;2022-09-03T01:25:05;9.30;;;3.90;;
36137;SDS011;22194;50.046;21.954;2022-09-03T01:27:45;11.70;;;3.80;;
36137;SDS011;22194;50.046;21.954;2022-09-03T01:30:39;13.10;;;4.20;;
36137;SDS011;22194;50.046;21.954;2022-09-03T01:36:33;11.60;;;4.30;;
36137;SDS011;22194;50.046;21.954;2022-09-03T01:39:33;8.90;;;3.60;;
36137;SDS011;22194;50.046;21.954;2022-09-03T01:42:36;13.20;;;4.10;;
36137;SDS011;22194;50.046;21.954;2022-09-03T02:00:14;12.90;;;4.20;;
36137;SDS011;22194;50.046;21.954;2022-09-03T02:02:48;13.00;;;4.00;;
36137;SDS011;22194;50.046;21.954;2022-09-03T02:05:26;10.30;;;4.60;;
36137;SDS011;22194;50.046;21.954;2022-09-03T02:10:33;10.60;;;4.30;;
36137;SDS011;22194;50.046;21.954;2022-09-03T02:13:15;12.40;;;4.20;;
36137;SDS011;22194;50.046;21.954;2022-09-03T02:15:51;9.60;;;3.70;;
36137;SDS011;22194;50.046;21.954;2022-09-03T02:18:23;9.40;;;3.80;;
36137;SDS011;22194;50.046;21.954;2022-09-03T02:20:56;9.70;;;3.80;;
36137;SDS011;22194;50.046;21.954;2022-09-03T02:23:28;14.10;;;3.70;;
36137;SDS011;22194;50.046;21.954;2022-09-03T02:25:57;9.40;;;3.90;;
36137;SDS011;22194;50.046;21.954;2022-09-03T02:28:29;12.80;;;4.50;;
36137;SDS011;22194;50.046;21.954;2022-09-03T02:30:59;13.20;;;4.90;;
36137;SDS011;22194;50.046;21.954;2022-09-03T02:33:27;15.00;;;4.50;;
36137;SDS011;22194;50.046;21.954;2022-09-03T02:36:04;14.10;;;4.60;;
36137;SDS011;22194;50.046;21.954;2022-09-03T02:38:36;10.80;;;4.20;;
36137;SDS011;22194;50.046;21.954;2022-09-03T02:41:04;11.60;;;4.10;;
36137;SDS011;22194;50.046;21.954;2022-09-03T02:43:38;14.20;;;4.60;;
36137;SDS011;22194;50.046;21.954;2022-09-03T02:46:14;12.20;;;4.00;;
36137;SDS011;22194;50.046;21.954;2022-09-03T02:48:54;10.40;;;4.10;;
36137;SDS011;22194;50.046;21.954;2022-09-03T02:51:23;12.30;;;4.50;;
36137;SDS011;22194;50.046;21.954;2022-09-03T02:53:54;13.90;;;4.40;;
36137;SDS011;22194;50.046;21.954;2022-09-03T02:56:22;14.80;;;4.50;;
36137;SDS011;22194;50.046;21.954;2022-09-03T02:58:55;11.00;;;4.60;;
36137;SDS011;22194;50.046;21.954;2022-09-03T03:01:24;15.10;;;4.30;;
36137;SDS011;22194;50.046;21.954;2022-09-03T03:03:53;13.10;;;4.70;;
36137;SDS011;22194;50.046;21.954;2022-09-03T03:06:21;13.20;;;5.20;;
36137;SDS011;22194;50.046;21.954;2022-09-03T03:08:50;10.10;;;4.30;;
36137;SDS011;22194;50.046;21.954;2022-09-03T03:11:19;14.60;;;4.80;;
36137;SDS011;22194;50.046;21.954;2022-09-03T03:13:48;12.40;;;4.40;;
36137;SDS011;22194;50.046;21.954;2022-09-03T03:16:17;9.00;;;4.30;;
36137;SDS011;22194;50.046;21.954;2022-09-03T03:18:45;11.10;;;4.30;;
36137;SDS011;22194;50.046;21.954;2022-09-03T03:21:15;10.60;;;4.60;;
36137;SDS011;22194;50.046;21.954;2022-09-03T03:23:45;12.10;;;4.40;;
36137;SDS011;22194;50.046;21.954;2022-09-03T03:26:14;12.50;;;4.80;;
36137;SDS011;22194;50.046;21.954;2022-09-03T03:28:49;14.70;;;4.90;;
36137;SDS011;22194;50.046;21.954;2022-09-03T03:31:24;17.20;;;4.90;;
36137;SDS011;22194;50.046;21.954;2022-09-03T03:33:55;12.20;;;4.60;;
36137;SDS011;22194;50.046;21.954;2022-09-03T03:38:59;13.30;;;4.80;;
36137;SDS011;22194;50.046;21.954;2022-09-03T03:41:32;13.90;;;5.20;;
36137;SDS011;22194;50.046;21.954;2022-09-03T03:44:02;13.30;;;4.90;;
36137;SDS011;22194;50.046;21.954;2022-09-03T03:46:34;11.60;;;4.70;;
36137;SDS011;22194;50.046;21.954;2022-09-03T03:49:05;16.00;;;5.40;;
36137;SDS011;22194;50.046;21.954;2022-09-03T03:51:35;13.40;;;4.50;;
36137;SDS011;22194;50.046;21.954;2022-09-03T03:54:05;12.30;;;4.70;;
36137;SDS011;22194;50.046;21.954;2022-09-03T03:56:37;15.30;;;4.90;;
36137;SDS011;22194;50.046;21.954;2022-09-03T03:59:05;10.60;;;4.60;;
36137;SDS011;22194;50.046;21.954;2022-09-03T04:01:34;13.80;;;4.60;;
36137;SDS011;22194;50.046;21.954;2022-09-03T04:04:02;15.20;;;5.10;;
36137;SDS011;22194;50.046;21.954;2022-09-03T04:06:30;16.80;;;5.70;;
36137;SDS011;22194;50.046;21.954;2022-09-03T04:08:58;13.90;;;4.40;;
36137;SDS011;22194;50.046;21.954;2022-09-03T04:11:27;13.20;;;5.10;;
36137;SDS011;22194;50.046;21.954;2022-09-03T04:13:55;12.10;;;4.40;;
36137;SDS011;22194;50.046;21.954;2022-09-03T04:16:26;15.20;;;4.80;;
36137;SDS011;22194;50.046;21.954;2022-09-03T04:18:55;15.20;;;4.50;;
36137;SDS011;22194;50.046;21.954;2022-09-03T04:21:25;15.70;;;4.90;;
36137;SDS011;22194;50.046;21.954;2022-09-03T04:23:56;12.20;;;4.70;;
36137;SDS011;22194;50.046;21.954;2022-09-03T04:26:26;13.90;;;5.10;;
36137;SDS011;22194;50.046;21.954;2022-09-03T04:29:01;13.60;;;4.30;;
36137;SDS011;22194;50.046;21.954;2022-09-03T04:31:31;13.40;;;4.60;;
36137;SDS011;22194;50.046;21.954;2022-09-03T04:34:01;14.40;;;4.60;;
36137;SDS011;22194;50.046;21.954;2022-09-03T04:36:33;15.00;;;5.60;;
36137;SDS011;22194;50.046;21.954;2022-09-03T04:39:02;12.40;;;4.10;;
36137;SDS011;22194;50.046;21.954;2022-09-03T04:41:30;10.30;;;4.50;;
36137;SDS011;22194;50.046;21.954;2022-09-03T04:43:59;12.30;;;4.50;;
36137;SDS011;22194;50.046;21.954;2022-09-03T04:46:29;10.50;;;4.30;;
36137;SDS011;22194;50.046;21.954;2022-09-03T04:49:01;9.80;;;4.20;;
36137;SDS011;22194;50.046;21.954;2022-09-03T04:51:31;11.70;;;4.20;;
36137;SDS011;22194;50.046;21.954;2022-09-03T04:54:00;13.40;;;4.10;;
36137;SDS011;22194;50.046;21.954;2022-09-03T04:56:30;12.10;;;4.80;;
36137;SDS011;22194;50.046;21.954;2022-09-03T04:59:02;11.90;;;4.50;;
36137;SDS011;22194;50.046;21.954;2022-09-03T05:01:32;14.40;;;4.70;;
36137;SDS011;22194;50.046;21.954;2022-09-03T05:04:05;11.60;;;4.40;;
36137;SDS011;22194;50.046;21.954;2022-09-03T05:06:34;10.70;;;4.30;;
36137;SDS011;22194;50.046;21.954;2022-09-03T05:09:04;9.50;;;4.20;;
36137;SDS011;22194;50.046;21.954;2022-09-03T05:11:33;12.40;;;4.50;;
36137;SDS011;22194;50.046;21.954;2022-09-03T05:14:02;12.70;;;5.00;;
36137;SDS011;22194;50.046;21.954;2022-09-03T05:16:33;11.10;;;4.80;;
36137;SDS011;22194;50.046;21.954;2022-09-03T05:19:01;10.40;;;4.40;;
36137;SDS011;22194;50.046;21.954;2022-09-03T05:21:30;15.40;;;4.60;;
36137;SDS011;22194;50.046;21.954;2022-09-03T05:23:59;13.80;;;4.50;;
36137;SDS011;22194;50.046;21.954;2022-09-03T05:26:29;13.50;;;4.40;;
36137;SDS011;22194;50.046;21.954;2022-09-03T05:29:01;18.30;;;5.50;;
36137;SDS011;22194;50.046;21.954;2022-09-03T05:31:35;14.70;;;5.00;;
36137;SDS011;22194;50.046;21.954;2022-09-03T05:34:06;12.10;;;4.70;;
36137;SDS011;22194;50.046;21.954;2022-09-03T05:36:43;13.40;;;4.80;;
36137;SDS011;22194;50.046;21.954;2022-09-03T05:39:12;17.40;;;4.90;;
36137;SDS011;22194;50.046;21.954;2022-09-03T05:41:40;14.80;;;4.90;;
36137;SDS011;22194;50.046;21.954;2022-09-03T05:44:08;12.80;;;4.70;;
36137;SDS011;22194;50.046;21.954;2022-09-03T05:46:36;16.30;;;5.00;;
36137;SDS011;22194;50.046;21.954;2022-09-03T05:49:05;12.80;;;4.70;;
36137;SDS011;22194;50.046;21.954;2022-09-03T05:51:34;14.50;;;4.70;;
36137;SDS011;22194;50.046;21.954;2022-09-03T05:54:03;12.80;;;4.40;;
36137;SDS011;22194;50.046;21.954;2022-09-03T05:56:31;11.00;;;4.60;;
36137;SDS011;22194;50.046;21.954;2022-09-03T05:59:03;10.50;;;4.50;;
36137;SDS011;22194;50.046;21.954;2022-09-03T06:01:36;11.30;;;4.50;;
36137;SDS011;22194;50.046;21.954;2022-09-03T06:04:08;11.20;;;4.60;;
36137;SDS011;22194;50.046;21.954;2022-09-03T06:06:41;13.80;;;4.90;;
36137;SDS011;22194;50.046;21.954;2022-09-03T06:09:13;12.40;;;5.00;;
36137;SDS011;22194;50.046;21.954;2022-09-03T06:11:44;11.80;;;4.80;;
36137;SDS011;22194;50.046;21.954;2022-09-03T06:14:13;12.30;;;5.20;;
36137;SDS011;22194;50.046;21.954;2022-09-03T06:16:43;11.50;;;4.90;;
36137;SDS011;22194;50.046;21.954;2022-09-03T06:19:17;10.60;;;4.50;;
36137;SDS011;22194;50.046;21.954;2022-09-03T06:21:46;10.60;;;4.50;;
36137;SDS011;22194;50.046;21.954;2022-09-03T06:24:16;9.50;;;4.40;;
36137;SDS011;22194;50.046;21.954;2022-09-03T06:26:47;11.40;;;5.40;;
36137;SDS011;22194;50.046;21.954;2022-09-03T06:29:16;11.40;;;4.70;;
36137;SDS011;22194;50.046;21.954;2022-09-03T06:31:47;11.70;;;5.10;;
36137;SDS011;22194;50.046;21.954;2022-09-03T06:34:15;11.00;;;4.50;;
36137;SDS011;22194;50.046;21.954;2022-09-03T06:36:45;9.90;;;4.40;;
36137;SDS011;22194;50.046;21.954;2022-09-03T06:39:14;12.50;;;5.10;;
36137;SDS011;22194;50.046;21.954;2022-09-03T06:41:42;10.50;;;4.70;;
36137;SDS011;22194;50.046;21.954;2022-09-03T06:44:11;11.50;;;4.70;;
36137;SDS011;22194;50.046;21.954;2022-09-03T06:46:40;13.50;;;4.70;;
36137;SDS011;22194;50.046;21.954;2022-09-03T06:49:10;13.60;;;5.00;;
36137;SDS011;22194;50.046;21.954;2022-09-03T06:51:39;11.30;;;4.30;;
36137;SDS011;22194;50.046;21.954;2022-09-03T06:54:11;11.10;;;3.80;;
36137;SDS011;22194;50.046;21.954;2022-09-03T06:56:40;13.40;;;4.80;;
36137;SDS011;22194;50.046;21.954;2022-09-03T06:59:10;8.80;;;4.00;;
36137;SDS011;22194;50.046;21.954;2022-09-03T07:01:40;11.00;;;4.70;;
36137;SDS011;22194;50.046;21.954;2022-09-03T07:04:14;12.20;;;4.70;;
36137;SDS011;22194;50.046;21.954;2022-09-03T07:06:47;10.00;;;4.10;;
36137;SDS011;22194;50.046;21.954;2022-09-03T07:09:15;8.50;;;4.00;;
36137;SDS011;22194;50.046;21.954;2022-09-03T07:11:46;8.00;;;3.80;;
36137;SDS011;22194;50.046;21.954;2022-09-03T07:14:16;10.00;;;4.40;;
36137;SDS011;22194;50.046;21.954;2022-09-03T07:16:47;8.40;;;3.90;;
36137;SDS011;22194;50.046;21.954;2022-09-03T07:19:16;12.10;;;4.60;;
36137;SDS011;22194;50.046;21.954;2022-09-03T07:21:45;8.50;;;4.10;;
36137;SDS011;22194;50.046;21.954;2022-09-03T07:24:18;10.30;;;4.40;;
36137;SDS011;22194;50.046;21.954;2022-09-03T07:26:49;10.00;;;4.50;;
36137;SDS011;22194;50.046;21.954;2022-09-03T07:29:18;10.40;;;4.60;;
36137;SDS011;22194;50.046;21.954;2022-09-03T07:31:48;9.20;;;4.00;;
36137;SDS011;22194;50.046;21.954;2022-09-03T07:34:20;10.60;;;4.70;;
36137;SDS011;22194;50.046;21.954;2022-09-03T07:36:53;11.80;;;4.60;;
36137;SDS011;22194;50.046;21.954;2022-09-03T07:39:22;10.50;;;4.50;;
36137;SDS011;22194;50.046;21.954;2022-09-03T07:41:51;7.30;;;3.60;;
36137;SDS011;22194;50.046;21.954;2022-09-03T07:44:19;8.40;;;4.20;;
36137;SDS011;22194;50.046;21.954;2022-09-03T07:46:48;9.50;;;4.00;;
36137;SDS011;22194;50.046;21.954;2022-09-03T07:49:19;11.10;;;4.60;;
36137;SDS011;22194;50.046;21.954;2022-09-03T07:51:49;9.50;;;4.40;;
36137;SDS011;22194;50.046;21.954;2022-09-03T07:54:21;12.10;;;4.40;;
36137;SDS011;22194;50.046;21.954;2022-09-03T07:56:51;9.60;;;4.20;;
36137;SDS011;22194;50.046;21.954;2022-09-03T07:59:20;12.20;;;5.00;;
36137;SDS011;22194;50.046;21.954;2022-09-03T08:01:50;11.00;;;4.70;;
36137;SDS011;22194;50.046;21.954;2022-09-03T08:04:19;9.70;;;4.40;;
36137;SDS011;22194;50.046;21.954;2022-09-03T08:06:48;10.20;;;4.50;;
36137;SDS011;22194;50.046;21.954;2022-09-03T08:09:16;10.20;;;4.20;;
36137;SDS011;22194;50.046;21.954;2022-09-03T08:11:44;8.60;;;4.10;;
36137;SDS011;22194;50.046;21.954;2022-09-03T08:14:12;9.90;;;4.60;;
36137;SDS011;22194;50.046;21.954;2022-09-03T08:16:42;9.50;;;4.40;;
36137;SDS011;22194;50.046;21.954;2022-09-03T08:19:16;11.10;;;4.60;;
36137;SDS011;22194;50.046;21.954;2022-09-03T08:21:45;9.30;;;4.20;;
36137;SDS011;22194;50.046;21.954;2022-09-03T08:24:14;8.80;;;4.10;;
36137;SDS011;22194;50.046;21.954;2022-09-03T08:26:44;9.90;;;4.00;;
36137;SDS011;22194;50.046;21.954;2022-09-03T08:29:19;9.30;;;3.70;;
36137;SDS011;22194;50.046;21.954;2022-09-03T08:31:49;10.80;;;4.20;;
36137;SDS011;22194;50.046;21.954;2022-09-03T08:34:18;11.40;;;4.00;;
36137;SDS011;22194;50.046;21.954;2022-09-03T08:36:47;9.30;;;4.00;;
36137;SDS011;22194;50.046;21.954;2022-09-03T08:39:16;9.30;;;3.70;;
36137;SDS011;22194;50.046;21.954;2022-09-03T08:44:50;12.60;;;4.50;;
36137;SDS011;22194;50.046;21.954;2022-09-03T08:52:52;7.00;;;3.50;;
36137;SDS011;22194;50.046;21.954;2022-09-03T08:55:28;7.00;;;3.60;;
36137;SDS011;22194;50.046;21.954;2022-09-03T08:58:02;7.50;;;3.60;;
36137;SDS011;22194;50.046;21.954;2022-09-03T09:01:08;7.50;;;3.10;;
36137;SDS011;22194;50.046;21.954;2022-09-03T09:03:55;6.50;;;3.00;;
36137;SDS011;22194;50.046;21.954;2022-09-03T09:06:52;6.40;;;3.00;;
36137;SDS011;22194;50.046;21.954;2022-09-03T09:09:43;6.40;;;2.80;;
36137;SDS011;22194;50.046;21.954;2022-09-03T09:15:31;7.00;;;3.10;;
36137;SDS011;22194;50.046;21.954;2022-09-03T09:18:19;6.00;;;2.60;;
36137;SDS011;22194;50.046;21.954;2022-09-03T09:21:09;13.10;;;5.70;;
36137;SDS011;22194;50.046;21.954;2022-09-03T09:23:48;8.80;;;3.80;;
36137;SDS011;22194;50.046;21.954;2022-09-03T09:26:18;5.80;;;2.90;;
36137;SDS011;22194;50.046;21.954;2022-09-03T09:28:57;7.40;;;3.00;;
36137;SDS011;22194;50.046;21.954;2022-09-03T09:31:37;4.40;;;2.60;;
36137;SDS011;22194;50.046;21.954;2022-09-03T09:34:08;9.70;;;3.30;;
36137;SDS011;22194;50.046;21.954;2022-09-03T09:39:19;5.90;;;3.00;;
36137;SDS011;22194;50.046;21.954;2022-09-03T09:42:00;5.50;;;2.80;;
36137;SDS011;22194;50.046;21.954;2022-09-03T09:44:37;9.20;;;3.20;;
36137;SDS011;22194;50.046;21.954;2022-09-03T09:47:24;6.20;;;3.20;;
36137;SDS011;22194;50.046;21.954;2022-09-03T09:50:02;5.90;;;2.80;;
36137;SDS011;22194;50.046;21.954;2022-09-03T09:53:05;5.70;;;2.70;;
36137;SDS011;22194;50.046;21.954;2022-09-03T09:55:47;6.90;;;2.60;;
36137;SDS011;22194;50.046;21.954;2022-09-03T09:58:18;6.80;;;2.70;;
36137;SDS011;22194;50.046;21.954;2022-09-03T10:03:26;5.40;;;2.80;;
36137;SDS011;22194;50.046;21.954;2022-09-03T10:06:00;4.40;;;2.50;;
36137;SDS011;22194;50.046;21.954;2022-09-03T10:09:04;7.10;;;2.70;;
36137;SDS011;22194;50.046;21.954;2022-09-03T10:11:45;9.20;;;2.70;;
36137;SDS011;22194;50.046;21.954;2022-09-03T10:16:55;8.50;;;2.80;;
36137;SDS011;22194;50.046;21.954;2022-09-03T10:19:38;6.50;;;2.50;;
36137;SDS011;22194;50.046;21.954;2022-09-03T10:22:11;4.50;;;2.70;;
36137;SDS011;22194;50.046;21.954;2022-09-03T10:24:57;6.90;;;2.80;;
36137;SDS011;22194;50.046;21.954;2022-09-03T10:27:28;4.60;;;2.60;;
36137;SDS011;22194;50.046;21.954;2022-09-03T10:30:00;7.00;;;3.00;;
36137;SDS011;22194;50.046;21.954;2022-09-03T10:35:37;6.70;;;2.80;;
36137;SDS011;22194;50.046;21.954;2022-09-03T10:38:31;5.70;;;2.70;;
36137;SDS011;22194;50.046;21.954;2022-09-03T10:44:11;7.60;;;3.20;;
36137;SDS011;22194;50.046;21.954;2022-09-03T10:49:44;11.10;;;3.30;;
36137;SDS011;22194;50.046;21.954;2022-09-03T10:55:47;6.50;;;3.20;;
36137;SDS011;22194;50.046;21.954;2022-09-03T11:01:01;7.00;;;3.00;;
36137;SDS011;22194;50.046;21.954;2022-09-03T11:03:52;8.00;;;3.30;;
36137;SDS011;22194;50.046;21.954;2022-09-03T11:07:16;6.50;;;3.10;;
36137;SDS011;22194;50.046;21.954;2022-09-03T11:09:32;6.90;;;3.20;;
36137;SDS011;22194;50.046;21.954;2022-09-03T11:12:19;6.80;;;3.10;;
36137;SDS011;22194;50.046;21.954;2022-09-03T11:15:23;9.50;;;3.70;;
36137;SDS011;22194;50.046;21.954;2022-09-03T11:20:57;10.50;;;4.30;;
36137;SDS011;22194;50.046;21.954;2022-09-03T11:23:36;6.50;;;3.20;;
36137;SDS011;22194;50.046;21.954;2022-09-03T11:26:11;15.60;;;3.60;;
36137;SDS011;22194;50.046;21.954;2022-09-03T11:32:14;8.20;;;3.40;;
36137;SDS011;22194;50.046;21.954;2022-09-03T11:34:51;12.30;;;4.10;;
36137;SDS011;22194;50.046;21.954;2022-09-03T11:42:44;12.90;;;4.70;;
36137;SDS011;22194;50.046;21.954;2022-09-03T11:47:56;12.30;;;4.50;;
36137;SDS011;22194;50.046;21.954;2022-09-03T11:50:29;11.20;;;4.10;;
36137;SDS011;22194;50.046;21.954;2022-09-03T11:53:07;10.30;;;3.60;;
36137;SDS011;22194;50.046;21.954;2022-09-03T11:58:32;7.20;;;3.50;;
36137;SDS011;22194;50.046;21.954;2022-09-03T12:01:04;6.40;;;3.40;;
36137;SDS011;22194;50.046;21.954;2022-09-03T12:03:47;12.60;;;4.10;;
36137;SDS011;22194;50.046;21.954;2022-09-03T12:06:20;9.60;;;3.60;;
36137;SDS011;22194;50.046;21.954;2022-09-03T12:08:55;8.10;;;3.30;;
36137;SDS011;22194;50.046;21.954;2022-09-03T12:17:07;7.00;;;3.40;;
36137;SDS011;22194;50.046;21.954;2022-09-03T12:20:00;7.70;;;3.10;;
36137;SDS011;22194;50.046;21.954;2022-09-03T12:22:34;6.20;;;3.10;;
36137;SDS011;22194;50.046;21.954;2022-09-03T12:25:10;9.20;;;2.90;;
36137;SDS011;22194;50.046;21.954;2022-09-03T12:27:43;4.70;;;2.70;;
36137;SDS011;22194;50.046;21.954;2022-09-03T12:30:16;5.90;;;2.90;;
36137;SDS011;22194;50.046;21.954;2022-09-03T12:32:50;7.40;;;3.30;;
36137;SDS011;22194;50.046;21.954;2022-09-03T12:35:22;5.10;;;2.70;;
36137;SDS011;22194;50.046;21.954;2022-09-03T12:40:51;11.10;;;3.80;;
36137;SDS011;22194;50.046;21.954;2022-09-03T12:43:48;6.70;;;3.00;;
36137;SDS011;22194;50.046;21.954;2022-09-03T12:46:27;6.20;;;2.70;;
36137;SDS011;22194;50.046;21.954;2022-09-03T12:49:01;9.60;;;3.00;;
36137;SDS011;22194;50.046;21.954;2022-09-03T12:51:59;6.60;;;3.30;;
36137;SDS011;22194;50.046;21.954;2022-09-03T12:54:33;6.10;;;2.90;;
36137;SDS011;22194;50.046;21.954;2022-09-03T12:57:29;15.40;;;4.00;;
36137;SDS011;22194;50.046;21.954;2022-09-03T13:00:09;13.00;;;4.90;;
36137;SDS011;22194;50.046;21.954;2022-09-03T13:02:45;9.90;;;3.50;;
36137;SDS011;22194;50.046;21.954;2022-09-03T13:05:19;11.30;;;4.10;;
36137;SDS011;22194;50.046;21.954;2022-09-03T13:08:00;19.60;;;6.90;;
36137;SDS011;22194;50.046;21.954;2022-09-03T13:13:14;14.00;;;4.50;;
36137;SDS011;22194;50.046;21.954;2022-09-03T13:19:00;14.90;;;5.40;;
36137;SDS011;22194;50.046;21.954;2022-09-03T13:21:40;13.40;;;4.30;;
36137;SDS011;22194;50.046;21.954;2022-09-03T13:27:09;9.00;;;3.50;;
36137;SDS011;22194;50.046;21.954;2022-09-03T13:30:03;7.90;;;3.60;;
36137;SDS011;22194;50.046;21.954;2022-09-03T13:33:08;10.80;;;3.90;;
36137;SDS011;22194;50.046;21.954;2022-09-03T13:36:08;9.50;;;3.50;;
36137;SDS011;22194;50.046;21.954;2022-09-03T13:38:49;9.30;;;3.90;;
36137;SDS011;22194;50.046;21.954;2022-09-03T13:41:36;6.80;;;3.40;;
36137;SDS011;22194;50.046;21.954;2022-09-03T13:49:41;7.90;;;3.60;;
36137;SDS011;22194;50.046;21.954;2022-09-03T13:57:54;8.20;;;3.60;;
36137;SDS011;22194;50.046;21.954;2022-09-03T14:00:42;8.80;;;3.20;;
36137;SDS011;22194;50.046;21.954;2022-09-03T14:15:02;8.50;;;3.90;;
36137;SDS011;22194;50.046;21.954;2022-09-03T14:23:35;6.60;;;3.20;;
36137;SDS011;22194;50.046;21.954;2022-09-03T14:26:30;6.20;;;3.30;;
36137;SDS011;22194;50.046;21.954;2022-09-03T14:29:16;7.70;;;3.30;;
36137;SDS011;22194;50.046;21.954;2022-09-03T14:32:03;8.90;;;3.60;;
36137;SDS011;22194;50.046;21.954;2022-09-03T14:37:40;8.80;;;3.80;;
36137;SDS011;22194;50.046;21.954;2022-09-03T14:40:51;9.40;;;3.50;;
36137;SDS011;22194;50.046;21.954;2022-09-03T14:43:40;9.20;;;3.80;;
36137;SDS011;22194;50.046;21.954;2022-09-03T14:49:37;10.40;;;3.70;;
36137;SDS011;22194;50.046;21.954;2022-09-03T14:55:24;9.10;;;3.80;;
36137;SDS011;22194;50.046;21.954;2022-09-03T15:01:09;8.70;;;3.50;;
36137;SDS011;22194;50.046;21.954;2022-09-03T15:04:44;8.70;;;3.30;;
36137;SDS011;22194;50.046;21.954;2022-09-03T15:12:33;7.60;;;3.80;;
36137;SDS011;22194;50.046;21.954;2022-09-03T15:21:31;8.40;;;3.40;;
36137;SDS011;22194;50.046;21.954;2022-09-03T15:27:01;7.20;;;3.30;;
36137;SDS011;22194;50.046;21.954;2022-09-03T15:32:47;6.30;;;3.10;;
36137;SDS011;22194;50.046;21.954;2022-09-03T15:41:18;8.50;;;3.30;;
36137;SDS011;22194;50.046;21.954;2022-09-03T15:44:12;10.80;;;3.10;;
36137;SDS011;22194;50.046;21.954;2022-09-03T15:46:54;8.10;;;3.40;;
36137;SDS011;22194;50.046;21.954;2022-09-03T15:49:30;7.80;;;3.40;;
36137;SDS011;22194;50.046;21.954;2022-09-03T15:54:57;8.50;;;3.20;;
36137;SDS011;22194;50.046;21.954;2022-09-03T16:00:16;8.80;;;3.30;;
36137;SDS011;22194;50.046;21.954;2022-09-03T16:05:37;8.80;;;3.30;;
36137;SDS011;22194;50.046;21.954;2022-09-03T16:08:26;9.10;;;3.60;;
36137;SDS011;22194;50.046;21.954;2022-09-03T16:11:27;9.30;;;3.30;;
36137;SDS011;22194;50.046;21.954;2022-09-03T16:13:59;11.60;;;3.20;;
36137;SDS011;22194;50.046;21.954;2022-09-03T16:17:02;8.30;;;3.40;;
36137;SDS011;22194;50.046;21.954;2022-09-03T16:19:41;11.80;;;3.70;;
36137;SDS011;22194;50.046;21.954;2022-09-03T16:22:25;9.20;;;3.60;;
36137;SDS011;22194;50.046;21.954;2022-09-03T16:25:00;8.80;;;3.40;;
36137;SDS011;22194;50.046;21.954;2022-09-03T16:27:43;9.30;;;3.40;;
36137;SDS011;22194;50.046;21.954;2022-09-03T16:33:38;7.20;;;3.20;;
36137;SDS011;22194;50.046;21.954;2022-09-03T16:36:34;6.80;;;3.20;;
36137;SDS011;22194;50.046;21.954;2022-09-03T16:39:36;7.80;;;3.20;;
36137;SDS011;22194;50.046;21.954;2022-09-03T16:48:10;7.60;;;3.00;;
36137;SDS011;22194;50.046;21.954;2022-09-03T16:51:19;5.80;;;3.00;;
36137;SDS011;22194;50.046;21.954;2022-09-03T16:54:09;6.40;;;3.20;;
36137;SDS011;22194;50.046;21.954;2022-09-03T16:57:06;6.70;;;2.60;;
36137;SDS011;22194;50.046;21.954;2022-09-03T17:05:43;11.80;;;4.00;;
36137;SDS011;22194;50.046;21.954;2022-09-03T17:08:43;7.30;;;2.90;;
36137;SDS011;22194;50.046;21.954;2022-09-03T17:23:15;6.80;;;3.30;;
36137;SDS011;22194;50.046;21.954;2022-09-03T17:31:57;7.80;;;3.40;;
36137;SDS011;22194;50.046;21.954;2022-09-03T17:35:08;7.80;;;3.40;;
36137;SDS011;22194;50.046;21.954;2022-09-03T17:43:46;8.30;;;3.50;;
36137;SDS011;22194;50.046;21.954;2022-09-03T17:49:22;8.50;;;3.90;;
36137;SDS011;22194;50.046;21.954;2022-09-03T17:51:58;9.00;;;4.10;;
36137;SDS011;22194;50.046;21.954;2022-09-03T17:54:39;9.00;;;4.50;;
36137;SDS011;22194;50.046;21.954;2022-09-03T17:57:14;7.70;;;3.60;;
36137;SDS011;22194;50.046;21.954;2022-09-03T17:59:58;11.40;;;4.10;;
36137;SDS011;22194;50.046;21.954;2022-09-03T18:02:59;12.80;;;4.50;;
36137;SDS011;22194;50.046;21.954;2022-09-03T18:05:43;10.20;;;3.80;;
36137;SDS011;22194;50.046;21.954;2022-09-03T18:08:21;8.10;;;4.00;;
36137;SDS011;22194;50.046;21.954;2022-09-03T18:13:47;11.00;;;4.50;;
36137;SDS011;22194;50.046;21.954;2022-09-03T18:16:38;11.00;;;4.80;;
36137;SDS011;22194;50.046;21.954;2022-09-03T18:19:34;13.30;;;5.30;;
36137;SDS011;22194;50.046;21.954;2022-09-03T18:22:38;10.70;;;5.00;;
36137;SDS011;22194;50.046;21.954;2022-09-03T18:25:35;10.80;;;4.60;;
36137;SDS011;22194;50.046;21.954;2022-09-03T18:28:29;13.50;;;4.90;;
36137;SDS011;22194;50.046;21.954;2022-09-03T18:31:33;9.40;;;4.80;;
36137;SDS011;22194;50.046;21.954;2022-09-03T18:34:20;12.90;;;4.80;;
36137;SDS011;22194;50.046;21.954;2022-09-03T18:37:22;12.40;;;5.30;;
36137;SDS011;22194;50.046;21.954;2022-09-03T18:40:14;9.10;;;4.60;;
36137;SDS011;22194;50.046;21.954;2022-09-03T18:43:29;9.70;;;4.90;;
36137;SDS011;22194;50.046;21.954;2022-09-03T18:49:56;10.80;;;5.10;;
36137;SDS011;22194;50.046;21.954;2022-09-03T18:52:55;17.30;;;8.30;;
36137;SDS011;22194;50.046;21.954;2022-09-03T18:55:50;11.80;;;5.40;;
36137;SDS011;22194;50.046;21.954;2022-09-03T18:59:07;10.90;;;5.10;;
36137;SDS011;22194;50.046;21.954;2022-09-03T19:02:07;11.80;;;5.00;;
36137;SDS011;22194;50.046;21.954;2022-09-03T19:05:24;12.90;;;5.30;;
36137;SDS011;22194;50.046;21.954;2022-09-03T19:08:28;10.30;;;4.60;;
36137;SDS011;22194;50.046;21.954;2022-09-03T19:11:28;10.90;;;4.90;;
36137;SDS011;22194;50.046;21.954;2022-09-03T19:14:28;11.50;;;4.90;;
36137;SDS011;22194;50.046;21.954;2022-09-03T19:20:26;9.60;;;4.90;;
36137;SDS011;22194;50.046;21.954;2022-09-03T19:23:18;11.50;;;4.50;;
36137;SDS011;22194;50.046;21.954;2022-09-03T19:26:14;10.60;;;4.50;;
36137;SDS011;22194;50.046;21.954;2022-09-03T19:29:17;10.40;;;5.00;;
36137;SDS011;22194;50.046;21.954;2022-09-03T19:32:18;11.90;;;4.70;;
36137;SDS011;22194;50.046;21.954;2022-09-03T19:35:19;9.90;;;4.50;;
36137;SDS011;22194;50.046;21.954;2022-09-03T19:41:44;10.40;;;4.60;;
36137;SDS011;22194;50.046;21.954;2022-09-03T19:44:52;7.90;;;4.20;;
36137;SDS011;22194;50.046;21.954;2022-09-03T19:51:10;7.90;;;4.10;;
36137;SDS011;22194;50.046;21.954;2022-09-03T19:54:04;9.80;;;4.00;;